sensor_id;sensor_type;location;lat;lon;timestamp;P1;durP1;ratioP1;P2;durP2;ratioP2
70049;SDS011;57391;51.306;22.680;2022-12-18T00:01:26;24.00;;;9.00;;
70049;SDS011;57391;51.306;22.680;2022-12-18T00:03:55;23.00;;;7.70;;
70049;SDS011;57391;51.306;22.680;2022-12-18T00:06:22;28.60;;;10.40;;
70049;SDS011;57391;51.306;22.680;2022-12-18T00:08:50;28.00;;;9.10;;
70049;SDS011;57391;51.306;22.680;2022-12-18T00:11:19;28.50;;;10.30;;
70049;SDS011;57391;51.306;22.680;2022-12-18T00:13:48;31.00;;;9.00;;
70049;SDS011;57391;51.306;22.680;2022-12-18T00:16:18;41.40;;;13.30;;
70049;SDS011;57391;51.306;22.680;2022-12-18T00:18:53;33.60;;;11.20;;
70049;SDS011;57391;51.306;22.680;2022-12-18T00:21:20;39.00;;;12.60;;
70049;SDS011;57391;51.306;22.680;2022-12-18T00:23:49;36.40;;;12.30;;
70049;SDS011;57391;51.306;22.680;2022-12-18T00:26:21;24.10;;;8.30;;
70049;SDS011;57391;51.306;22.680;2022-12-18T00:28:51;36.40;;;9.80;;
70049;SDS011;57391;51.306;22.680;2022-12-18T00:31:23;20.10;;;6.90;;
70049;SDS011;57391;51.306;22.680;2022-12-18T00:33:54;40.70;;;13.90;;
70049;SDS011;57391;51.306;22.680;2022-12-18T00:36:28;37.40;;;13.60;;
70049;SDS011;57391;51.306;22.680;2022-12-18T00:39:05;26.00;;;9.30;;
70049;SDS011;57391;51.306;22.680;2022-12-18T00:41:32;19.80;;;5.80;;
70049;SDS011;57391;51.306;22.680;2022-12-18T00:44:18;19.10;;;6.30;;
70049;SDS011;57391;51.306;22.680;2022-12-18T00:46:45;21.00;;;6.80;;
70049;SDS011;57391;51.306;22.680;2022-12-18T00:49:15;14.80;;;6.00;;
70049;SDS011;57391;51.306;22.680;2022-12-18T00:51:43;21.70;;;6.70;;
70049;SDS011;57391;51.306;22.680;2022-12-18T00:54:10;14.20;;;4.80;;
70049;SDS011;57391;51.306;22.680;2022-12-18T00:56:38;18.50;;;6.20;;
70049;SDS011;57391;51.306;22.680;2022-12-18T00:59:05;19.80;;;7.00;;
70049;SDS011;57391;51.306;22.680;2022-12-18T01:01:32;38.60;;;12.00;;
70049;SDS011;57391;51.306;22.680;2022-12-18T01:04:00;20.50;;;6.20;;
70049;SDS011;57391;51.306;22.680;2022-12-18T01:06:29;25.40;;;8.40;;
70049;SDS011;57391;51.306;22.680;2022-12-18T01:08:55;29.00;;;9.30;;
70049;SDS011;57391;51.306;22.680;2022-12-18T01:11:23;21.80;;;7.40;;
70049;SDS011;57391;51.306;22.680;2022-12-18T01:13:52;21.70;;;7.90;;
70049;SDS011;57391;51.306;22.680;2022-12-18T01:16:22;38.30;;;13.40;;
70049;SDS011;57391;51.306;22.680;2022-12-18T01:18:53;24.80;;;7.30;;
70049;SDS011;57391;51.306;22.680;2022-12-18T01:21:21;39.50;;;11.80;;
70049;SDS011;57391;51.306;22.680;2022-12-18T01:23:56;29.60;;;9.10;;
70049;SDS011;57391;51.306;22.680;2022-12-18T01:26:24;35.70;;;10.80;;
70049;SDS011;57391;51.306;22.680;2022-12-18T01:28:51;27.10;;;8.30;;
70049;SDS011;57391;51.306;22.680;2022-12-18T01:31:25;51.70;;;14.90;;
70049;SDS011;57391;51.306;22.680;2022-12-18T01:33:54;39.70;;;12.00;;
70049;SDS011;57391;51.306;22.680;2022-12-18T01:36:24;45.90;;;13.50;;
70049;SDS011;57391;51.306;22.680;2022-12-18T01:38:56;38.50;;;11.90;;
70049;SDS011;57391;51.306;22.680;2022-12-18T01:41:27;48.80;;;15.30;;
70049;SDS011;57391;51.306;22.680;2022-12-18T01:44:57;38.30;;;12.40;;
70049;SDS011;57391;51.306;22.680;2022-12-18T01:50:22;61.60;;;17.90;;
70049;SDS011;57391;51.306;22.680;2022-12-18T01:53:01;39.90;;;11.60;;
70049;SDS011;57391;51.306;22.680;2022-12-18T01:55:50;48.00;;;14.70;;
70049;SDS011;57391;51.306;22.680;2022-12-18T01:58:22;26.70;;;8.60;;
70049;SDS011;57391;51.306;22.680;2022-12-18T02:00:54;23.70;;;8.70;;
70049;SDS011;57391;51.306;22.680;2022-12-18T02:03:21;34.50;;;10.90;;
70049;SDS011;57391;51.306;22.680;2022-12-18T02:06:05;28.80;;;9.50;;
70049;SDS011;57391;51.306;22.680;2022-12-18T02:08:43;33.60;;;10.00;;
70049;SDS011;57391;51.306;22.680;2022-12-18T02:17:21;32.70;;;10.20;;
70049;SDS011;57391;51.306;22.680;2022-12-18T02:28:31;33.50;;;9.10;;
70049;SDS011;57391;51.306;22.680;2022-12-18T02:31:10;40.20;;;11.00;;
70049;SDS011;57391;51.306;22.680;2022-12-18T02:33:43;28.80;;;8.40;;
70049;SDS011;57391;51.306;22.680;2022-12-18T02:36:12;40.50;;;11.50;;
70049;SDS011;57391;51.306;22.680;2022-12-18T02:38:43;26.80;;;8.00;;
70049;SDS011;57391;51.306;22.680;2022-12-18T02:41:14;42.90;;;12.60;;
70049;SDS011;57391;51.306;22.680;2022-12-18T02:43:47;40.40;;;11.20;;
70049;SDS011;57391;51.306;22.680;2022-12-18T02:49:28;42.90;;;11.10;;
70049;SDS011;57391;51.306;22.680;2022-12-18T02:58:20;47.40;;;13.50;;
70049;SDS011;57391;51.306;22.680;2022-12-18T03:01:11;59.30;;;16.50;;
70049;SDS011;57391;51.306;22.680;2022-12-18T03:03:51;34.20;;;10.70;;
70049;SDS011;57391;51.306;22.680;2022-12-18T03:06:30;33.70;;;10.20;;
70049;SDS011;57391;51.306;22.680;2022-12-18T03:09:04;44.70;;;12.70;;
70049;SDS011;57391;51.306;22.680;2022-12-18T03:11:40;35.80;;;11.50;;
70049;SDS011;57391;51.306;22.680;2022-12-18T03:14:30;40.20;;;13.00;;
70049;SDS011;57391;51.306;22.680;2022-12-18T03:17:03;54.80;;;16.60;;
70049;SDS011;57391;51.306;22.680;2022-12-18T03:19:32;48.20;;;14.20;;
70049;SDS011;57391;51.306;22.680;2022-12-18T03:22:03;41.80;;;13.20;;
70049;SDS011;57391;51.306;22.680;2022-12-18T03:24:40;48.30;;;16.30;;
70049;SDS011;57391;51.306;22.680;2022-12-18T03:27:11;42.30;;;13.00;;
70049;SDS011;57391;51.306;22.680;2022-12-18T03:29:49;43.60;;;13.60;;
70049;SDS011;57391;51.306;22.680;2022-12-18T03:32:28;34.50;;;11.20;;
70049;SDS011;57391;51.306;22.680;2022-12-18T03:35:02;43.30;;;15.00;;
70049;SDS011;57391;51.306;22.680;2022-12-18T03:37:33;43.10;;;13.70;;
70049;SDS011;57391;51.306;22.680;2022-12-18T03:40:00;44.00;;;13.40;;
70049;SDS011;57391;51.306;22.680;2022-12-18T03:42:44;36.20;;;12.40;;
70049;SDS011;57391;51.306;22.680;2022-12-18T03:45:38;36.30;;;12.20;;
70049;SDS011;57391;51.306;22.680;2022-12-18T03:48:38;48.00;;;15.20;;
70049;SDS011;57391;51.306;22.680;2022-12-18T03:51:39;57.80;;;18.70;;
70049;SDS011;57391;51.306;22.680;2022-12-18T03:54:13;42.50;;;15.00;;
70049;SDS011;57391;51.306;22.680;2022-12-18T03:56:58;31.90;;;10.00;;
70049;SDS011;57391;51.306;22.680;2022-12-18T03:59:31;30.70;;;11.30;;
70049;SDS011;57391;51.306;22.680;2022-12-18T04:02:00;33.90;;;12.40;;
70049;SDS011;57391;51.306;22.680;2022-12-18T04:04:30;38.10;;;11.60;;
70049;SDS011;57391;51.306;22.680;2022-12-18T04:07:00;58.00;;;18.30;;
70049;SDS011;57391;51.306;22.680;2022-12-18T04:09:28;26.00;;;9.20;;
70049;SDS011;57391;51.306;22.680;2022-12-18T04:11:57;36.90;;;12.50;;
70049;SDS011;57391;51.306;22.680;2022-12-18T04:14:24;30.00;;;9.30;;
70049;SDS011;57391;51.306;22.680;2022-12-18T04:16:53;19.90;;;7.30;;
70049;SDS011;57391;51.306;22.680;2022-12-18T04:19:23;19.90;;;8.40;;
70049;SDS011;57391;51.306;22.680;2022-12-18T04:21:50;20.00;;;7.50;;
70049;SDS011;57391;51.306;22.680;2022-12-18T04:24:16;15.70;;;6.20;;
70049;SDS011;57391;51.306;22.680;2022-12-18T04:26:50;29.80;;;10.30;;
70049;SDS011;57391;51.306;22.680;2022-12-18T04:29:21;27.50;;;10.00;;
70049;SDS011;57391;51.306;22.680;2022-12-18T04:31:48;18.80;;;7.70;;
70049;SDS011;57391;51.306;22.680;2022-12-18T04:34:15;17.30;;;6.80;;
70049;SDS011;57391;51.306;22.680;2022-12-18T04:36:47;16.30;;;5.50;;
70049;SDS011;57391;51.306;22.680;2022-12-18T04:39:17;17.20;;;5.70;;
70049;SDS011;57391;51.306;22.680;2022-12-18T04:41:43;19.50;;;8.40;;
70049;SDS011;57391;51.306;22.680;2022-12-18T04:44:12;24.40;;;9.00;;
70049;SDS011;57391;51.306;22.680;2022-12-18T04:46:39;17.90;;;6.60;;
70049;SDS011;57391;51.306;22.680;2022-12-18T04:49:06;24.30;;;9.50;;
70049;SDS011;57391;51.306;22.680;2022-12-18T04:51:32;16.70;;;6.60;;
70049;SDS011;57391;51.306;22.680;2022-12-18T04:54:00;14.30;;;5.00;;
70049;SDS011;57391;51.306;22.680;2022-12-18T04:56:28;12.90;;;4.60;;
70049;SDS011;57391;51.306;22.680;2022-12-18T04:58:54;16.20;;;6.30;;
70049;SDS011;57391;51.306;22.680;2022-12-18T05:01:20;14.00;;;5.00;;
70049;SDS011;57391;51.306;22.680;2022-12-18T05:03:47;18.50;;;6.30;;
70049;SDS011;57391;51.306;22.680;2022-12-18T05:06:14;17.80;;;6.60;;
70049;SDS011;57391;51.306;22.680;2022-12-18T05:08:40;11.00;;;4.30;;
70049;SDS011;57391;51.306;22.680;2022-12-18T05:11:10;15.60;;;6.50;;
70049;SDS011;57391;51.306;22.680;2022-12-18T05:13:37;14.10;;;5.90;;
70049;SDS011;57391;51.306;22.680;2022-12-18T05:16:05;17.40;;;6.70;;
70049;SDS011;57391;51.306;22.680;2022-12-18T05:18:31;22.30;;;8.10;;
70049;SDS011;57391;51.306;22.680;2022-12-18T05:20:58;17.20;;;7.30;;
70049;SDS011;57391;51.306;22.680;2022-12-18T05:23:25;18.60;;;7.10;;
70049;SDS011;57391;51.306;22.680;2022-12-18T05:26:00;20.10;;;8.10;;
70049;SDS011;57391;51.306;22.680;2022-12-18T05:28:30;13.00;;;5.90;;
70049;SDS011;57391;51.306;22.680;2022-12-18T05:30:59;17.40;;;6.60;;
70049;SDS011;57391;51.306;22.680;2022-12-18T05:33:33;14.80;;;5.70;;
70049;SDS011;57391;51.306;22.680;2022-12-18T05:36:02;16.90;;;7.00;;
70049;SDS011;57391;51.306;22.680;2022-12-18T05:38:32;21.40;;;7.20;;
70049;SDS011;57391;51.306;22.680;2022-12-18T05:41:01;17.20;;;7.70;;
70049;SDS011;57391;51.306;22.680;2022-12-18T05:43:28;23.00;;;9.00;;
70049;SDS011;57391;51.306;22.680;2022-12-18T05:45:55;18.80;;;7.50;;
70049;SDS011;57391;51.306;22.680;2022-12-18T05:48:23;19.10;;;7.70;;
70049;SDS011;57391;51.306;22.680;2022-12-18T05:50:50;21.80;;;8.20;;
70049;SDS011;57391;51.306;22.680;2022-12-18T05:53:19;30.70;;;11.10;;
70049;SDS011;57391;51.306;22.680;2022-12-18T05:55:46;19.50;;;8.10;;
70049;SDS011;57391;51.306;22.680;2022-12-18T05:58:14;22.30;;;7.80;;
70049;SDS011;57391;51.306;22.680;2022-12-18T06:00:44;17.90;;;6.40;;
70049;SDS011;57391;51.306;22.680;2022-12-18T06:03:12;20.40;;;8.00;;
70049;SDS011;57391;51.306;22.680;2022-12-18T06:05:42;18.30;;;7.20;;
70049;SDS011;57391;51.306;22.680;2022-12-18T06:08:10;16.20;;;7.40;;
70049;SDS011;57391;51.306;22.680;2022-12-18T06:10:38;20.00;;;7.70;;
70049;SDS011;57391;51.306;22.680;2022-12-18T06:13:06;21.70;;;8.20;;
70049;SDS011;57391;51.306;22.680;2022-12-18T06:15:36;25.30;;;9.50;;
70049;SDS011;57391;51.306;22.680;2022-12-18T06:18:03;18.90;;;7.60;;
70049;SDS011;57391;51.306;22.680;2022-12-18T06:20:30;10.30;;;4.40;;
70049;SDS011;57391;51.306;22.680;2022-12-18T06:22:57;14.70;;;6.30;;
70049;SDS011;57391;51.306;22.680;2022-12-18T06:25:24;24.20;;;9.80;;
70049;SDS011;57391;51.306;22.680;2022-12-18T06:27:50;20.20;;;7.60;;
70049;SDS011;57391;51.306;22.680;2022-12-18T06:30:16;22.70;;;9.10;;
70049;SDS011;57391;51.306;22.680;2022-12-18T06:32:43;24.40;;;10.00;;
70049;SDS011;57391;51.306;22.680;2022-12-18T06:35:10;23.10;;;9.40;;
70049;SDS011;57391;51.306;22.680;2022-12-18T06:37:36;18.50;;;8.00;;
70049;SDS011;57391;51.306;22.680;2022-12-18T06:40:03;21.60;;;9.10;;
70049;SDS011;57391;51.306;22.680;2022-12-18T06:42:31;19.70;;;6.50;;
70049;SDS011;57391;51.306;22.680;2022-12-18T06:44:58;28.60;;;11.20;;
70049;SDS011;57391;51.306;22.680;2022-12-18T06:47:25;17.20;;;7.00;;
70049;SDS011;57391;51.306;22.680;2022-12-18T06:49:52;16.90;;;6.50;;
70049;SDS011;57391;51.306;22.680;2022-12-18T06:52:18;24.80;;;9.40;;
70049;SDS011;57391;51.306;22.680;2022-12-18T06:54:44;20.90;;;8.00;;
70049;SDS011;57391;51.306;22.680;2022-12-18T06:57:11;13.50;;;6.10;;
70049;SDS011;57391;51.306;22.680;2022-12-18T06:59:37;13.50;;;5.00;;
70049;SDS011;57391;51.306;22.680;2022-12-18T07:02:04;22.70;;;7.40;;
70049;SDS011;57391;51.306;22.680;2022-12-18T07:04:31;26.10;;;8.60;;
70049;SDS011;57391;51.306;22.680;2022-12-18T07:06:58;26.00;;;10.90;;
70049;SDS011;57391;51.306;22.680;2022-12-18T07:09:24;15.60;;;5.80;;
70049;SDS011;57391;51.306;22.680;2022-12-18T07:11:51;14.20;;;4.70;;
70049;SDS011;57391;51.306;22.680;2022-12-18T07:14:18;18.30;;;6.80;;
70049;SDS011;57391;51.306;22.680;2022-12-18T07:16:44;15.40;;;5.40;;
70049;SDS011;57391;51.306;22.680;2022-12-18T07:19:10;23.00;;;8.60;;
70049;SDS011;57391;51.306;22.680;2022-12-18T07:21:36;21.40;;;8.70;;
70049;SDS011;57391;51.306;22.680;2022-12-18T07:24:03;17.40;;;6.90;;
70049;SDS011;57391;51.306;22.680;2022-12-18T07:26:29;16.30;;;6.70;;
70049;SDS011;57391;51.306;22.680;2022-12-18T07:28:56;16.70;;;6.90;;
70049;SDS011;57391;51.306;22.680;2022-12-18T07:31:24;14.70;;;5.90;;
70049;SDS011;57391;51.306;22.680;2022-12-18T07:33:51;21.60;;;7.60;;
70049;SDS011;57391;51.306;22.680;2022-12-18T07:36:18;21.90;;;9.90;;
70049;SDS011;57391;51.306;22.680;2022-12-18T07:38:49;19.70;;;8.40;;
70049;SDS011;57391;51.306;22.680;2022-12-18T07:41:18;22.40;;;8.40;;
70049;SDS011;57391;51.306;22.680;2022-12-18T07:43:45;19.30;;;8.00;;
70049;SDS011;57391;51.306;22.680;2022-12-18T07:46:13;23.90;;;9.30;;
70049;SDS011;57391;51.306;22.680;2022-12-18T07:48:41;22.90;;;8.30;;
70049;SDS011;57391;51.306;22.680;2022-12-18T07:51:09;26.60;;;10.40;;
70049;SDS011;57391;51.306;22.680;2022-12-18T07:53:38;26.20;;;11.00;;
70049;SDS011;57391;51.306;22.680;2022-12-18T07:56:07;28.90;;;10.90;;
70049;SDS011;57391;51.306;22.680;2022-12-18T07:58:37;27.90;;;9.90;;
70049;SDS011;57391;51.306;22.680;2022-12-18T08:03:31;24.60;;;9.90;;
70049;SDS011;57391;51.306;22.680;2022-12-18T08:06:07;22.00;;;8.40;;
70049;SDS011;57391;51.306;22.680;2022-12-18T08:08:35;18.00;;;6.40;;
70049;SDS011;57391;51.306;22.680;2022-12-18T08:11:03;23.20;;;8.80;;
70049;SDS011;57391;51.306;22.680;2022-12-18T08:13:30;19.10;;;7.80;;
70049;SDS011;57391;51.306;22.680;2022-12-18T08:16:03;16.90;;;6.60;;
70049;SDS011;57391;51.306;22.680;2022-12-18T08:18:36;20.60;;;7.70;;
70049;SDS011;57391;51.306;22.680;2022-12-18T08:21:10;17.40;;;7.20;;
70049;SDS011;57391;51.306;22.680;2022-12-18T08:23:39;24.70;;;9.30;;
70049;SDS011;57391;51.306;22.680;2022-12-18T08:26:05;16.20;;;6.60;;
70049;SDS011;57391;51.306;22.680;2022-12-18T08:28:34;25.50;;;9.80;;
70049;SDS011;57391;51.306;22.680;2022-12-18T08:31:01;20.50;;;8.10;;
70049;SDS011;57391;51.306;22.680;2022-12-18T08:33:27;14.50;;;5.50;;
70049;SDS011;57391;51.306;22.680;2022-12-18T08:35:54;18.90;;;7.20;;
70049;SDS011;57391;51.306;22.680;2022-12-18T08:38:21;19.50;;;8.60;;
70049;SDS011;57391;51.306;22.680;2022-12-18T08:40:58;20.80;;;7.80;;
70049;SDS011;57391;51.306;22.680;2022-12-18T08:43:26;20.90;;;9.20;;
70049;SDS011;57391;51.306;22.680;2022-12-18T08:46:15;18.00;;;7.20;;
70049;SDS011;57391;51.306;22.680;2022-12-18T08:48:42;18.20;;;7.70;;
70049;SDS011;57391;51.306;22.680;2022-12-18T08:51:09;17.10;;;7.30;;
70049;SDS011;57391;51.306;22.680;2022-12-18T08:53:36;23.50;;;8.80;;
70049;SDS011;57391;51.306;22.680;2022-12-18T08:56:04;19.50;;;8.40;;
70049;SDS011;57391;51.306;22.680;2022-12-18T08:58:31;19.20;;;7.40;;
70049;SDS011;57391;51.306;22.680;2022-12-18T09:01:04;17.60;;;7.40;;
70049;SDS011;57391;51.306;22.680;2022-12-18T09:03:33;22.10;;;9.30;;
70049;SDS011;57391;51.306;22.680;2022-12-18T09:05:59;21.80;;;7.70;;
70049;SDS011;57391;51.306;22.680;2022-12-18T09:08:26;20.40;;;6.10;;
70049;SDS011;57391;51.306;22.680;2022-12-18T09:10:53;20.80;;;7.60;;
70049;SDS011;57391;51.306;22.680;2022-12-18T09:13:19;22.50;;;8.90;;
70049;SDS011;57391;51.306;22.680;2022-12-18T09:15:49;14.40;;;5.90;;
70049;SDS011;57391;51.306;22.680;2022-12-18T09:18:19;15.70;;;6.70;;
70049;SDS011;57391;51.306;22.680;2022-12-18T09:20:48;15.40;;;6.10;;
70049;SDS011;57391;51.306;22.680;2022-12-18T09:23:16;18.10;;;6.70;;
70049;SDS011;57391;51.306;22.680;2022-12-18T09:25:42;15.50;;;6.90;;
70049;SDS011;57391;51.306;22.680;2022-12-18T09:28:16;14.20;;;5.70;;
70049;SDS011;57391;51.306;22.680;2022-12-18T09:30:48;15.80;;;6.70;;
70049;SDS011;57391;51.306;22.680;2022-12-18T09:33:16;13.30;;;5.10;;
70049;SDS011;57391;51.306;22.680;2022-12-18T09:35:44;15.70;;;5.70;;
70049;SDS011;57391;51.306;22.680;2022-12-18T09:38:15;17.10;;;6.90;;
70049;SDS011;57391;51.306;22.680;2022-12-18T09:40:52;14.60;;;6.10;;
70049;SDS011;57391;51.306;22.680;2022-12-18T09:43:28;11.20;;;4.90;;
70049;SDS011;57391;51.306;22.680;2022-12-18T09:46:29;14.60;;;5.50;;
70049;SDS011;57391;51.306;22.680;2022-12-18T09:49:01;12.20;;;4.90;;
70049;SDS011;57391;51.306;22.680;2022-12-18T09:52:18;13.70;;;5.20;;
70049;SDS011;57391;51.306;22.680;2022-12-18T09:55:32;15.40;;;6.50;;
70049;SDS011;57391;51.306;22.680;2022-12-18T09:58:26;14.30;;;5.70;;
70049;SDS011;57391;51.306;22.680;2022-12-18T10:01:23;11.10;;;4.70;;
70049;SDS011;57391;51.306;22.680;2022-12-18T10:03:55;12.30;;;5.80;;
70049;SDS011;57391;51.306;22.680;2022-12-18T10:06:35;16.30;;;5.20;;
70049;SDS011;57391;51.306;22.680;2022-12-18T10:15:15;10.20;;;3.90;;
70049;SDS011;57391;51.306;22.680;2022-12-18T10:17:58;12.90;;;5.70;;
70049;SDS011;57391;51.306;22.680;2022-12-18T10:20:49;13.20;;;5.00;;
70049;SDS011;57391;51.306;22.680;2022-12-18T10:26:02;13.00;;;5.40;;
70049;SDS011;57391;51.306;22.680;2022-12-18T10:28:36;14.40;;;5.20;;
70049;SDS011;57391;51.306;22.680;2022-12-18T10:31:18;15.10;;;6.60;;
70049;SDS011;57391;51.306;22.680;2022-12-18T10:33:46;10.90;;;5.10;;
70049;SDS011;57391;51.306;22.680;2022-12-18T10:36:14;13.20;;;5.80;;
70049;SDS011;57391;51.306;22.680;2022-12-18T10:38:40;14.20;;;5.40;;
70049;SDS011;57391;51.306;22.680;2022-12-18T10:44:15;12.90;;;5.50;;
70049;SDS011;57391;51.306;22.680;2022-12-18T10:46:54;18.80;;;7.40;;
70049;SDS011;57391;51.306;22.680;2022-12-18T10:49:32;13.50;;;5.80;;
70049;SDS011;57391;51.306;22.680;2022-12-18T10:52:14;14.40;;;6.10;;
70049;SDS011;57391;51.306;22.680;2022-12-18T10:55:01;13.10;;;5.50;;
70049;SDS011;57391;51.306;22.680;2022-12-18T10:57:39;13.50;;;5.00;;
70049;SDS011;57391;51.306;22.680;2022-12-18T11:00:23;18.80;;;6.80;;
70049;SDS011;57391;51.306;22.680;2022-12-18T11:02:55;13.60;;;5.60;;
70049;SDS011;57391;51.306;22.680;2022-12-18T11:05:29;15.20;;;6.20;;
70049;SDS011;57391;51.306;22.680;2022-12-18T11:07:59;16.50;;;6.50;;
70049;SDS011;57391;51.306;22.680;2022-12-18T11:10:37;15.60;;;6.00;;
70049;SDS011;57391;51.306;22.680;2022-12-18T11:13:17;16.70;;;7.30;;
70049;SDS011;57391;51.306;22.680;2022-12-18T11:15:46;17.20;;;6.70;;
70049;SDS011;57391;51.306;22.680;2022-12-18T11:18:18;15.50;;;6.40;;
70049;SDS011;57391;51.306;22.680;2022-12-18T11:20:54;16.00;;;5.50;;
70049;SDS011;57391;51.306;22.680;2022-12-18T11:23:33;12.50;;;4.60;;
70049;SDS011;57391;51.306;22.680;2022-12-18T11:26:04;14.70;;;5.90;;
70049;SDS011;57391;51.306;22.680;2022-12-18T11:29:09;18.40;;;7.20;;
70049;SDS011;57391;51.306;22.680;2022-12-18T11:34:49;15.90;;;6.80;;
70049;SDS011;57391;51.306;22.680;2022-12-18T11:37:50;17.90;;;7.40;;
70049;SDS011;57391;51.306;22.680;2022-12-18T11:40:31;14.70;;;6.20;;
70049;SDS011;57391;51.306;22.680;2022-12-18T11:46:30;12.10;;;5.00;;
70049;SDS011;57391;51.306;22.680;2022-12-18T11:49:36;11.40;;;4.90;;
70049;SDS011;57391;51.306;22.680;2022-12-18T11:52:19;16.50;;;7.20;;
70049;SDS011;57391;51.306;22.680;2022-12-18T11:54:55;20.00;;;8.10;;
70049;SDS011;57391;51.306;22.680;2022-12-18T12:00:28;17.20;;;7.40;;
70049;SDS011;57391;51.306;22.680;2022-12-18T12:11:30;15.90;;;6.20;;
70049;SDS011;57391;51.306;22.680;2022-12-18T12:17:11;15.10;;;6.20;;
70049;SDS011;57391;51.306;22.680;2022-12-18T12:23:08;15.30;;;7.00;;
70049;SDS011;57391;51.306;22.680;2022-12-18T12:25:56;17.30;;;7.00;;
70049;SDS011;57391;51.306;22.680;2022-12-18T12:40:20;17.00;;;6.70;;
70049;SDS011;57391;51.306;22.680;2022-12-18T12:43:01;21.80;;;8.90;;
70049;SDS011;57391;51.306;22.680;2022-12-18T12:46:08;17.60;;;7.70;;
70049;SDS011;57391;51.306;22.680;2022-12-18T12:51:18;17.20;;;7.80;;
70049;SDS011;57391;51.306;22.680;2022-12-18T12:53:49;15.00;;;6.50;;
70049;SDS011;57391;51.306;22.680;2022-12-18T12:56:20;16.20;;;6.00;;
70049;SDS011;57391;51.306;22.680;2022-12-18T12:59:45;14.90;;;6.00;;
70049;SDS011;57391;51.306;22.680;2022-12-18T13:02:14;15.20;;;6.60;;
70049;SDS011;57391;51.306;22.680;2022-12-18T13:07:29;13.50;;;6.50;;
70049;SDS011;57391;51.306;22.680;2022-12-18T13:15:38;21.50;;;8.40;;
70049;SDS011;57391;51.306;22.680;2022-12-18T13:20:48;16.80;;;7.10;;
70049;SDS011;57391;51.306;22.680;2022-12-18T13:25:58;14.60;;;6.60;;
70049;SDS011;57391;51.306;22.680;2022-12-18T13:36:48;12.40;;;5.40;;
70049;SDS011;57391;51.306;22.680;2022-12-18T13:41:46;16.70;;;6.80;;
70049;SDS011;57391;51.306;22.680;2022-12-18T13:47:03;16.30;;;6.60;;
70049;SDS011;57391;51.306;22.680;2022-12-18T13:49:41;14.40;;;5.80;;
70049;SDS011;57391;51.306;22.680;2022-12-18T13:52:22;15.70;;;6.40;;
70049;SDS011;57391;51.306;22.680;2022-12-18T13:54:57;12.80;;;4.60;;
70049;SDS011;57391;51.306;22.680;2022-12-18T13:57:32;14.80;;;6.90;;
70049;SDS011;57391;51.306;22.680;2022-12-18T14:00:27;12.90;;;6.00;;
70049;SDS011;57391;51.306;22.680;2022-12-18T14:02:57;26.30;;;9.70;;
70049;SDS011;57391;51.306;22.680;2022-12-18T14:05:34;24.40;;;9.30;;
70049;SDS011;57391;51.306;22.680;2022-12-18T14:08:08;19.10;;;8.20;;
70049;SDS011;57391;51.306;22.680;2022-12-18T14:10:42;22.60;;;9.80;;
70049;SDS011;57391;51.306;22.680;2022-12-18T14:13:23;25.80;;;12.50;;
70049;SDS011;57391;51.306;22.680;2022-12-18T14:15:55;21.50;;;9.90;;
70049;SDS011;57391;51.306;22.680;2022-12-18T14:18:31;18.30;;;7.10;;
70049;SDS011;57391;51.306;22.680;2022-12-18T14:21:05;20.40;;;8.40;;
70049;SDS011;57391;51.306;22.680;2022-12-18T14:23:41;28.80;;;11.00;;
70049;SDS011;57391;51.306;22.680;2022-12-18T14:26:30;16.90;;;6.90;;
70049;SDS011;57391;51.306;22.680;2022-12-18T14:29:00;18.60;;;8.50;;
70049;SDS011;57391;51.306;22.680;2022-12-18T14:31:43;23.90;;;9.10;;
70049;SDS011;57391;51.306;22.680;2022-12-18T14:34:17;21.70;;;9.20;;
70049;SDS011;57391;51.306;22.680;2022-12-18T14:36:52;26.10;;;11.30;;
70049;SDS011;57391;51.306;22.680;2022-12-18T14:39:20;32.60;;;12.80;;
70049;SDS011;57391;51.306;22.680;2022-12-18T14:41:48;26.00;;;10.10;;
70049;SDS011;57391;51.306;22.680;2022-12-18T14:44:16;22.40;;;9.90;;
70049;SDS011;57391;51.306;22.680;2022-12-18T14:46:44;23.20;;;9.80;;
70049;SDS011;57391;51.306;22.680;2022-12-18T14:49:25;29.20;;;11.30;;
70049;SDS011;57391;51.306;22.680;2022-12-18T14:52:00;23.70;;;10.60;;
70049;SDS011;57391;51.306;22.680;2022-12-18T14:54:30;21.30;;;8.10;;
70049;SDS011;57391;51.306;22.680;2022-12-18T14:59:31;17.70;;;6.80;;
70049;SDS011;57391;51.306;22.680;2022-12-18T15:02:15;17.50;;;7.70;;
70049;SDS011;57391;51.306;22.680;2022-12-18T15:05:14;17.20;;;7.50;;
70049;SDS011;57391;51.306;22.680;2022-12-18T15:07:49;21.20;;;8.30;;
70049;SDS011;57391;51.306;22.680;2022-12-18T15:10:20;30.60;;;11.40;;
70049;SDS011;57391;51.306;22.680;2022-12-18T15:20:54;47.20;;;19.80;;
70049;SDS011;57391;51.306;22.680;2022-12-18T15:26:12;21.20;;;9.20;;
70049;SDS011;57391;51.306;22.680;2022-12-18T15:28:54;15.70;;;6.00;;
70049;SDS011;57391;51.306;22.680;2022-12-18T15:31:34;14.70;;;5.80;;
70049;SDS011;57391;51.306;22.680;2022-12-18T15:34:19;17.80;;;6.70;;
70049;SDS011;57391;51.306;22.680;2022-12-18T15:36:47;14.40;;;6.10;;
70049;SDS011;57391;51.306;22.680;2022-12-18T15:39:14;16.00;;;6.00;;
70049;SDS011;57391;51.306;22.680;2022-12-18T15:41:41;16.30;;;6.90;;
70049;SDS011;57391;51.306;22.680;2022-12-18T15:44:28;15.40;;;6.20;;
70049;SDS011;57391;51.306;22.680;2022-12-18T15:46:55;22.50;;;8.60;;
70049;SDS011;57391;51.306;22.680;2022-12-18T15:49:25;20.00;;;8.50;;
70049;SDS011;57391;51.306;22.680;2022-12-18T15:51:53;24.10;;;9.40;;
70049;SDS011;57391;51.306;22.680;2022-12-18T15:54:24;18.60;;;8.30;;
70049;SDS011;57391;51.306;22.680;2022-12-18T15:57:11;23.90;;;10.10;;
70049;SDS011;57391;51.306;22.680;2022-12-18T15:59:52;24.80;;;9.80;;
70049;SDS011;57391;51.306;22.680;2022-12-18T16:02:22;23.20;;;9.20;;
70049;SDS011;57391;51.306;22.680;2022-12-18T16:04:51;25.20;;;9.50;;
70049;SDS011;57391;51.306;22.680;2022-12-18T16:07:18;17.80;;;8.20;;
70049;SDS011;57391;51.306;22.680;2022-12-18T16:09:48;22.10;;;8.40;;
70049;SDS011;57391;51.306;22.680;2022-12-18T16:12:21;22.30;;;8.70;;
70049;SDS011;57391;51.306;22.680;2022-12-18T16:14:49;19.60;;;7.50;;
70049;SDS011;57391;51.306;22.680;2022-12-18T16:17:16;23.20;;;8.70;;
70049;SDS011;57391;51.306;22.680;2022-12-18T16:19:43;21.30;;;8.40;;
70049;SDS011;57391;51.306;22.680;2022-12-18T16:22:24;29.10;;;10.90;;
70049;SDS011;57391;51.306;22.680;2022-12-18T16:24:53;29.30;;;12.10;;
70049;SDS011;57391;51.306;22.680;2022-12-18T16:27:23;42.60;;;14.90;;
70049;SDS011;57391;51.306;22.680;2022-12-18T16:29:51;23.50;;;10.20;;
70049;SDS011;57391;51.306;22.680;2022-12-18T16:32:19;22.20;;;9.40;;
70049;SDS011;57391;51.306;22.680;2022-12-18T16:34:47;58.60;;;20.20;;
70049;SDS011;57391;51.306;22.680;2022-12-18T16:37:14;50.00;;;18.50;;
70049;SDS011;57391;51.306;22.680;2022-12-18T16:39:42;64.70;;;20.80;;
70049;SDS011;57391;51.306;22.680;2022-12-18T16:42:17;57.50;;;20.00;;
70049;SDS011;57391;51.306;22.680;2022-12-18T16:44:46;70.90;;;22.00;;
70049;SDS011;57391;51.306;22.680;2022-12-18T16:47:15;53.20;;;18.50;;
70049;SDS011;57391;51.306;22.680;2022-12-18T16:49:43;38.90;;;13.90;;
70049;SDS011;57391;51.306;22.680;2022-12-18T16:52:13;56.00;;;18.90;;